Time;durP1;ratioP1;P1;durP2;ratioP2;P2;SDS_P1;SDS_P2;PMS_P1;PMS_P2;Temp;Humidity;BMP_temperature;BMP_pressure;BME280_temperature;BME280_humidity;BME280_pressure;Samples;Min_cycle;Max_cycle;Signal;HPM_P1;HPM_P2
2021/04/21 00:01:05;;;;;;;1.70;1.50;;;10.10;99.90;;;;;;4430588;32;20081;-61
2021/04/21 00:03:31;;;;;;;0.40;0.40;;;10.10;99.90;;;;;;4446093;32;20509;-61
2021/04/21 00:05:59;;;;;;;0.65;0.65;;;10.10;99.90;;;;;;4431961;32;20069;-61
2021/04/21 00:08:26;;;;;;;9.02;2.60;;;10.20;99.90;;;;;;4419664;32;20465;-61
2021/04/21 00:10:52;;;;;;;0.50;0.50;;;10.20;99.90;;;;;;4426051;32;20342;-63
2021/04/21 00:13:20;;;;;;;0.62;0.62;;;10.20;99.90;;;;;;4430397;32;20057;-61
2021/04/21 00:15:45;;;;;;;0.88;0.88;;;10.20;99.90;;;;;;4417382;32;20077;-61
2021/04/21 00:18:14;;;;;;;0.40;0.40;;;9.90;99.90;;;;;;4430487;32;20069;-62
2021/04/21 00:20:41;;;;;;;0.57;0.57;;;9.80;99.90;;;;;;4430708;32;20119;-62
2021/04/21 00:23:10;;;;;;;0.90;0.70;;;9.70;99.90;;;;;;4430186;32;20538;-62
2021/04/21 00:25:36;;;;;;;1.55;0.60;;;9.70;99.90;;;;;;4430740;32;20573;-60
2021/04/21 00:28:04;;;;;;;0.50;0.50;;;9.50;99.90;;;;;;4429343;32;20116;-62
2021/04/21 00:30:31;;;;;;;0.50;0.50;;;9.50;99.90;;;;;;4431155;32;20130;-62
2021/04/21 00:32:59;;;;;;;7.20;2.12;;;9.60;99.90;;;;;;4415860;32;20061;-61
2021/04/21 00:35:27;;;;;;;0.82;0.50;;;9.60;99.90;;;;;;4429173;32;20082;-61
2021/04/21 00:37:57;;;;;;;5.68;1.80;;;9.40;99.90;;;;;;4429692;32;20133;-61
2021/04/21 00:40:36;;;;;;;0.50;0.50;;;9.10;99.90;;;;;;4430569;32;20089;-63
2021/04/21 00:43:11;;;;;;;15.32;1.23;;;8.90;99.90;;;;;;4430455;32;20124;-61
2021/04/21 00:45:44;;;;;;;1.08;0.98;;;8.90;99.90;;;;;;4430148;32;20446;-62
2021/04/21 00:48:37;;;;;;;0.60;0.60;;;8.80;99.90;;;;;;4430613;32;20112;-60
2021/04/21 00:51:09;;;;;;;0.60;0.60;;;8.60;99.90;;;;;;4418499;32;20070;-61
2021/04/21 00:53:49;;;;;;;7.22;2.03;;;8.50;99.90;;;;;;4430305;32;20129;-61
2021/04/21 00:56:23;;;;;;;0.50;0.50;;;8.70;99.90;;;;;;4429254;32;20065;-61
2021/04/21 00:58:58;;;;;;;0.52;0.52;;;9.00;99.90;;;;;;4417628;32;20068;-61
2021/04/21 01:01:27;;;;;;;15.75;0.95;;;9.00;99.90;;;;;;4445400;32;20084;-62
2021/04/21 01:03:52;;;;;;;1.65;0.85;;;8.90;99.90;;;;;;4430576;32;20061;-62
2021/04/21 01:06:26;;;;;;;0.70;0.70;;;8.90;99.90;;;;;;4445018;32;20151;-61
2021/04/21 01:08:55;;;;;;;1.77;0.50;;;9.00;99.90;;;;;;4444989;32;20424;-62
2021/04/21 01:11:42;;;;;;;0.50;0.50;;;9.20;99.90;;;;;;4422665;32;20065;-61
2021/04/21 01:14:16;;;;;;;0.68;0.68;;;9.10;99.90;;;;;;4418020;32;20408;-62
2021/04/21 01:16:43;;;;;;;0.50;0.50;;;9.00;99.90;;;;;;4428670;32;20066;-61
2021/04/21 01:19:48;;;;;;;1.27;0.88;;;9.10;99.90;;;;;;4428793;32;20090;-61
2021/04/21 01:22:24;;;;;;;1.15;0.98;;;8.90;99.90;;;;;;4408751;32;20133;-60
2021/04/21 01:24:59;;;;;;;0.40;0.40;;;8.80;99.90;;;;;;4429015;32;20120;-63
2021/04/21 01:28:01;;;;;;;2.83;0.65;;;8.50;99.90;;;;;;4417462;32;20065;-61
2021/04/21 01:30:28;;;;;;;0.37;0.37;;;8.40;99.90;;;;;;4418226;32;20452;-62
2021/04/21 01:32:59;;;;;;;0.57;0.47;;;8.20;99.90;;;;;;4415729;32;20069;-62
2021/04/21 01:35:27;;;;;;;2.00;1.10;;;8.10;99.90;;;;;;4415592;32;20435;-62
2021/04/21 01:37:59;;;;;;;0.30;0.30;;;8.20;99.90;;;;;;4415299;32;20065;-62
2021/04/21 01:40:36;;;;;;;0.60;0.60;;;8.20;99.90;;;;;;4415689;32;20491;-61
2021/04/21 01:43:08;;;;;;;0.50;0.50;;;8.20;99.90;;;;;;4416416;32;20069;-62
2021/04/21 01:45:36;;;;;;;1.23;1.12;;;8.30;99.90;;;;;;4430192;32;20529;-62
2021/04/21 01:48:06;;;;;;;0.52;0.52;;;8.30;99.90;;;;;;4415495;32;20069;-62
2021/04/21 01:50:32;;;;;;;0.65;0.50;;;8.30;99.90;;;;;;4428832;32;20117;-62
2021/04/21 01:53:08;;;;;;;0.50;0.50;;;8.10;99.90;;;;;;4414859;32;20065;-61
2021/04/21 01:55:45;;;;;;;0.50;0.50;;;8.10;99.90;;;;;;4429422;32;20133;-62
2021/04/21 01:58:47;;;;;;;0.50;0.50;;;8.30;99.90;;;;;;4428727;32;20116;-61
2021/04/21 02:01:39;;;;;;;0.50;0.50;;;8.30;99.90;;;;;;4418319;32;20057;-62
2021/04/21 02:04:13;;;;;;;0.60;0.60;;;8.40;99.90;;;;;;4432985;32;20458;-61
2021/04/21 02:07:01;;;;;;;0.30;0.30;;;8.60;99.90;;;;;;4429486;32;20074;-61
2021/04/21 02:09:48;;;;;;;1.15;0.68;;;8.50;99.90;;;;;;4432516;32;20057;-62
2021/04/21 02:12:37;;;;;;;0.65;0.57;;;8.20;99.90;;;;;;4444052;32;20065;-61
2021/04/21 02:15:11;;;;;;;1.10;1.00;;;8.30;99.90;;;;;;4432190;32;20081;-61
2021/04/21 02:18:03;;;;;;;1.40;1.10;;;8.30;99.90;;;;;;4443630;32;20057;-61
2021/04/21 02:20:51;;;;;;;0.85;0.62;;;8.10;99.90;;;;;;4432391;32;20072;-62
2021/04/21 02:23:21;;;;;;;2.83;1.62;;;7.90;99.90;;;;;;4435739;32;20061;-60
2021/04/21 02:26:24;;;;;;;2.03;0.90;;;7.70;99.90;;;;;;4446504;32;20066;-62
2021/04/21 02:29:01;;;;;;;0.70;0.70;;;7.70;99.90;;;;;;4448198;32;20115;-61
2021/04/21 02:31:51;;;;;;;0.77;0.47;;;7.80;99.90;;;;;;4447601;32;20129;-61
2021/04/21 02:34:30;;;;;;;1.17;1.08;;;7.80;99.90;;;;;;4435066;32;20108;-61
2021/04/21 02:37:11;;;;;;;0.50;0.50;;;7.90;99.90;;;;;;4433944;32;20065;-60
2021/04/21 02:39:49;;;;;;;0.50;0.50;;;7.70;99.90;;;;;;4446327;32;20077;-62
2021/04/21 02:42:20;;;;;;;0.50;0.50;;;7.80;99.90;;;;;;4446506;32;20089;-61
2021/04/21 02:45:06;;;;;;;;;;;8.00;99.90;;;;;;4433474;32;20081;-63
2021/04/21 02:47:42;;;;;;;0.52;0.52;;;8.10;99.90;;;;;;4436711;32;20335;-61
2021/04/21 02:50:36;;;;;;;1.35;0.93;;;7.90;99.90;;;;;;4447048;32;20069;-62
2021/04/21 02:53:13;;;;;;;8.57;1.95;;;7.90;99.90;;;;;;4433927;32;20081;-63
2021/04/21 02:56:19;;;;;;;12.88;1.30;;;7.70;99.90;;;;;;4446729;32;20056;-61
2021/04/21 02:58:55;;;;;;;1.27;1.08;;;7.70;99.90;;;;;;4436871;32;20072;-60
2021/04/21 03:02:00;;;;;;;0.52;0.52;;;7.50;99.90;;;;;;4445949;32;20066;-60
2021/04/21 03:04:53;;;;;;;14.13;2.90;;;7.40;99.90;;;;;;4426310;32;20383;-60
2021/04/21 03:07:42;;;;;;;0.30;0.30;;;7.40;99.90;;;;;;4434081;32;20123;-59
2021/04/21 03:10:13;;;;;;;0.88;0.65;;;7.30;99.90;;;;;;4420850;32;20057;-62
2021/04/21 03:12:44;;;;;;;6.80;0.93;;;7.20;99.90;;;;;;4420767;32;20510;-61
2021/04/21 03:15:11;;;;;;;;;;;7.20;99.90;;;;;;4447412;32;20065;-61
2021/04/21 03:17:39;;;;;;;1.23;1.15;;;7.20;99.90;;;;;;4446901;32;20012;-61
2021/04/21 03:20:13;;;;;;;0.50;0.50;;;7.30;99.90;;;;;;4445582;32;20124;-61
2021/04/21 03:22:40;;;;;;;0.62;0.62;;;7.30;99.90;;;;;;4432052;32;20127;-61
2021/04/21 03:25:11;;;;;;;0.30;0.30;;;7.20;99.90;;;;;;4432101;32;20081;-60
2021/04/21 03:27:41;;;;;;;0.40;0.40;;;7.20;99.90;;;;;;4431841;32;20116;-60
2021/04/21 03:30:11;;;;;;;1.52;0.75;;;7.30;99.90;;;;;;4431987;32;20388;-60
2021/04/21 03:32:40;;;;;;;0.40;0.40;;;7.20;99.90;;;;;;4432390;32;20065;-60
2021/04/21 03:35:07;;;;;;;0.45;0.45;;;7.20;99.90;;;;;;4432754;32;20073;-60
2021/04/21 03:37:57;;;;;;;0.40;0.40;;;7.30;99.90;;;;;;4432389;32;20079;-60
2021/04/21 03:40:22;;;;;;;1.35;1.25;;;7.50;99.90;;;;;;4434029;32;20085;-61
2021/04/21 03:42:48;;;;;;;0.75;0.75;;;7.70;99.90;;;;;;4445757;32;20068;-62
2021/04/21 03:45:14;;;;;;;0.40;0.40;;;7.70;99.90;;;;;;4432496;32;20061;-61
2021/04/21 03:47:41;;;;;;;2.80;0.77;;;7.80;99.90;;;;;;4445826;32;20078;-63
2021/04/21 03:50:09;;;;;;;0.68;0.68;;;7.80;99.90;;;;;;4432218;32;20116;-61
2021/04/21 03:52:38;;;;;;;5.85;1.35;;;7.80;99.90;;;;;;4431371;32;20076;-62
2021/04/21 03:55:05;;;;;;;7.12;1.92;;;7.80;99.90;;;;;;4431758;32;20077;-61
2021/04/21 03:57:33;;;;;;;0.40;0.40;;;7.80;99.90;;;;;;4445568;32;20062;-61
2021/04/21 04:00:03;;;;;;;12.90;1.52;;;7.90;99.90;;;;;;4446228;32;20124;-62
2021/04/21 04:02:31;;;;;;;0.90;0.90;;;7.70;99.90;;;;;;4432045;32;20224;-61
2021/04/21 04:05:00;;;;;;;0.98;0.98;;;7.60;99.90;;;;;;4446476;32;20081;-62
2021/04/21 04:07:27;;;;;;;0.40;0.40;;;7.70;99.90;;;;;;4446489;32;20068;-62
2021/04/21 04:09:56;;;;;;;1.08;0.73;;;7.60;99.90;;;;;;4446636;32;20514;-62
2021/04/21 04:12:26;;;;;;;13.38;1.85;;;7.60;99.90;;;;;;4419648;32;20064;-62
2021/04/21 04:14:54;;;;;;;0.45;0.45;;;7.50;99.90;;;;;;4446191;32;20061;-62
2021/04/21 04:17:22;;;;;;;1.17;0.93;;;7.50;99.90;;;;;;4446766;32;20120;-62
2021/04/21 04:19:48;;;;;;;3.83;1.65;;;7.70;99.90;;;;;;4446540;32;20069;-62
2021/04/21 04:22:17;;;;;;;7.35;0.93;;;7.80;99.90;;;;;;4419854;32;20525;-63
2021/04/21 04:24:47;;;;;;;0.73;0.68;;;7.80;99.90;;;;;;4416594;32;20061;-62
2021/04/21 04:27:15;;;;;;;0.90;0.75;;;7.70;99.90;;;;;;4432241;32;20508;-63
2021/04/21 04:29:42;;;;;;;1.02;0.95;;;7.80;99.90;;;;;;4445816;32;20061;-61
2021/04/21 04:32:12;;;;;;;0.50;0.50;;;7.80;99.90;;;;;;4431506;32;20120;-61
2021/04/21 04:34:42;;;;;;;0.43;0.43;;;7.70;99.90;;;;;;4444945;32;20076;-62
2021/04/21 04:37:09;;;;;;;1.27;0.98;;;7.60;99.90;;;;;;4444648;32;20065;-63
2021/04/21 04:39:36;;;;;;;1.23;0.77;;;7.40;99.90;;;;;;4432014;32;20085;-62
2021/04/21 04:42:02;;;;;;;2.85;1.20;;;7.40;99.90;;;;;;4444748;32;20076;-61
2021/04/21 04:44:28;;;;;;;0.55;0.55;;;7.50;99.90;;;;;;4443765;32;20139;-61
2021/04/21 04:46:56;;;;;;;1.08;0.70;;;7.50;99.90;;;;;;4444704;32;20408;-62
2021/04/21 04:49:23;;;;;;;0.82;0.82;;;7.50;99.90;;;;;;4446043;32;20065;-60
2021/04/21 04:51:54;;;;;;;1.00;1.00;;;7.50;99.90;;;;;;4445145;32;20459;-62
2021/04/21 04:54:21;;;;;;;1.27;1.15;;;7.60;99.90;;;;;;4437404;32;20084;-61
2021/04/21 04:56:47;;;;;;;3.58;1.00;;;7.80;99.90;;;;;;4425651;32;20078;-61
2021/04/21 04:59:13;;;;;;;0.50;0.50;;;7.70;99.90;;;;;;4436337;32;20066;-62
2021/04/21 05:01:49;;;;;;;2.42;1.12;;;7.80;99.90;;;;;;4420884;32;20560;-60
2021/04/21 05:04:18;;;;;;;1.08;0.98;;;7.80;99.90;;;;;;4416733;32;20132;-61
2021/04/21 05:06:53;;;;;;;0.57;0.57;;;7.90;99.90;;;;;;4413096;32;20523;-61
2021/04/21 05:09:23;;;;;;;0.80;0.80;;;7.90;99.90;;;;;;4419571;32;20069;-62
2021/04/21 05:11:50;;;;;;;10.70;2.10;;;7.90;99.90;;;;;;4434124;32;20074;-63
2021/04/21 05:14:17;;;;;;;0.50;0.50;;;8.10;99.90;;;;;;4439879;32;20080;-64
2021/04/21 05:17:19;;;;;;;0.70;0.70;;;8.10;99.90;;;;;;4433005;32;20273;-65
2021/04/21 05:20:25;;;;;;;0.98;0.95;;;8.10;99.90;;;;;;4423686;32;20093;-63
2021/04/21 05:23:11;;;;;;;0.60;0.60;;;8.10;99.90;;;;;;4422724;32;20527;-63
2021/04/21 05:25:58;;;;;;;0.70;0.70;;;8.10;99.90;;;;;;4421221;32;20077;-64
2021/04/21 05:28:42;;;;;;;41.88;1.35;;;8.30;99.90;;;;;;4410519;32;20084;-64
2021/04/21 05:31:47;;;;;;;1.12;0.57;;;8.40;99.90;;;;;;4424576;32;20474;-63
2021/04/21 05:34:52;;;;;;;0.60;0.60;;;8.50;99.90;;;;;;4402782;32;20135;-59
2021/04/21 05:37:40;;;;;;;1.92;1.12;;;8.60;99.90;;;;;;4418617;32;20073;-61
2021/04/21 05:40:46;;;;;;;0.45;0.45;;;8.70;99.90;;;;;;4420614;32;20085;-59
2021/04/21 05:43:40;;;;;;;0.47;0.47;;;8.80;99.90;;;;;;4408149;32;20085;-61
2021/04/21 05:46:45;;;;;;;0.62;0.62;;;8.90;99.90;;;;;;4422510;32;20482;-60
2021/04/21 05:49:33;;;;;;;0.50;0.50;;;8.80;99.90;;;;;;4406745;32;20183;-60
2021/04/21 05:52:35;;;;;;;0.50;0.50;;;8.90;99.90;;;;;;4420413;32;20057;-61
2021/04/21 05:55:30;;;;;;;0.77;0.77;;;9.10;99.90;;;;;;4419904;32;20142;-60
2021/04/21 05:58:29;;;;;;;1.15;0.60;;;9.20;99.90;;;;;;4420534;32;20530;-60
2021/04/21 06:01:15;;;;;;;1.27;1.17;;;9.20;99.90;;;;;;4419410;32;20153;-62
2021/04/21 06:03:44;;;;;;;0.47;0.47;;;9.40;99.90;;;;;;4430482;32;20491;-60
2021/04/21 06:06:10;;;;;;;12.75;1.50;;;9.40;99.90;;;;;;4420136;32;20440;-61
2021/04/21 06:08:35;;;;;;;8.05;1.62;;;9.50;99.90;;;;;;4438227;32;20077;-61
2021/04/21 06:11:01;;;;;;;0.90;0.90;;;9.60;99.90;;;;;;4436019;32;20064;-61
2021/04/21 06:13:28;;;;;;;0.93;0.88;;;9.70;99.90;;;;;;4434235;32;20944;-59
2021/04/21 06:15:54;;;;;;;0.45;0.45;;;9.80;99.90;;;;;;4437075;32;20077;-61
2021/04/21 06:18:21;;;;;;;0.55;0.55;;;9.80;99.90;;;;;;4436424;32;20061;-59
2021/04/21 06:20:47;;;;;;;2.28;0.95;;;9.90;99.90;;;;;;4426510;32;20076;-60
2021/04/21 06:23:19;;;;;;;0.43;0.43;;;10.00;99.90;;;;;;4424400;32;20476;-60
2021/04/21 06:25:48;;;;;;;0.60;0.60;;;10.10;99.90;;;;;;4445192;32;20099;-60
2021/04/21 06:28:16;;;;;;;3.30;1.85;;;10.20;99.90;;;;;;4427805;32;20597;-61
2021/04/21 06:30:44;;;;;;;1.05;0.95;;;10.20;99.90;;;;;;4425918;32;20080;-62
2021/04/21 06:33:10;;;;;;;0.65;0.65;;;10.30;99.90;;;;;;4435860;32;20080;-62
2021/04/21 06:35:37;;;;;;;0.88;0.88;;;10.40;99.90;;;;;;4435381;32;20170;-60
2021/04/21 06:38:04;;;;;;;0.35;0.35;;;10.60;99.90;;;;;;4409622;32;20076;-60
2021/04/21 06:40:31;;;;;;;0.43;0.43;;;10.60;99.90;;;;;;4422119;32;20131;-60
2021/04/21 06:42:58;;;;;;;1.77;1.20;;;10.60;99.90;;;;;;4422948;32;20084;-60
2021/04/21 06:45:26;;;;;;;4.95;2.00;;;10.60;99.90;;;;;;4441275;32;20109;-60
2021/04/21 06:47:54;;;;;;;0.47;0.47;;;10.80;99.90;;;;;;4411662;32;20208;-60
2021/04/21 06:50:28;;;;;;;0.65;0.65;;;10.90;99.90;;;;;;4408955;32;20068;-61
2021/04/21 06:52:59;;;;;;;1.00;0.93;;;10.90;99.90;;;;;;4425918;32;20101;-61
2021/04/21 06:55:25;;;;;;;;;;;11.10;99.90;;;;;;4439954;32;20185;-60
2021/04/21 06:57:50;;;;;;;0.40;0.40;;;11.20;99.90;;;;;;4438398;32;19940;-61
2021/04/21 07:00:18;;;;;;;0.98;0.88;;;11.30;99.90;;;;;;4441982;32;20082;-61
2021/04/21 07:02:46;;;;;;;0.50;0.50;;;11.40;99.90;;;;;;4434121;32;20093;-60
2021/04/21 07:05:35;;;;;;;0.68;0.68;;;11.50;99.90;;;;;;4411101;32;20080;-60
2021/04/21 07:08:14;;;;;;;0.75;0.75;;;11.60;99.90;;;;;;4422450;32;20113;-61
2021/04/21 07:10:45;;;;;;;0.62;0.60;;;11.70;99.90;;;;;;4423039;32;20077;-60
2021/04/21 07:13:20;;;;;;;0.43;0.43;;;11.80;99.90;;;;;;4423715;32;20061;-60
2021/04/21 07:15:47;;;;;;;1.25;0.70;;;12.00;99.90;;;;;;4425229;32;20088;-60
2021/04/21 07:18:19;;;;;;;0.37;0.37;;;12.10;99.90;;;;;;4440329;32;20065;-60
2021/04/21 07:20:46;;;;;;;0.60;0.60;;;12.10;99.30;;;;;;4439332;32;20089;-62
2021/04/21 07:23:16;;;;;;;1.27;0.50;;;12.10;99.90;;;;;;4425923;32;20498;-61
2021/04/21 07:25:46;;;;;;;1.70;0.67;;;12.20;99.30;;;;;;4439592;32;20437;-61
2021/04/21 07:28:13;;;;;;;0.50;0.50;;;12.40;99.10;;;;;;4421463;32;20065;-61
2021/04/21 07:30:39;;;;;;;4.03;1.60;;;12.60;98.60;;;;;;4407137;32;20510;-61
2021/04/21 07:33:05;;;;;;;1.17;1.08;;;12.70;99.10;;;;;;4431051;32;20152;-63
2021/04/21 07:35:30;;;;;;;0.88;0.80;;;12.80;96.60;;;;;;4440922;32;20076;-61
2021/04/21 07:37:58;;;;;;;3.70;1.85;;;12.80;96.20;;;;;;4438800;32;20086;-61
2021/04/21 07:40:30;;;;;;;1.05;0.95;;;12.90;95.40;;;;;;4420762;32;20081;-63
2021/04/21 07:43:09;;;;;;;0.50;0.50;;;13.00;95.40;;;;;;4434417;32;20082;-61
2021/04/21 07:45:56;;;;;;;1.52;0.75;;;13.00;95.00;;;;;;4413073;32;20088;-59
2021/04/21 07:48:38;;;;;;;0.50;0.50;;;13.20;94.80;;;;;;4419749;32;20065;-60
2021/04/21 07:51:24;;;;;;;0.45;0.45;;;13.40;94.10;;;;;;4413606;32;20057;-56
2021/04/21 07:54:02;;;;;;;2.50;1.23;;;13.50;92.90;;;;;;4427706;32;20093;-59
2021/04/21 07:56:35;;;;;;;0.65;0.65;;;13.50;92.20;;;;;;4432894;32;20073;-59
2021/04/21 07:59:22;;;;;;;0.35;0.35;;;13.60;91.70;;;;;;4384167;27;20154;-70
2021/04/21 08:01:49;;;;;;;0.55;0.55;;;13.70;90.70;;;;;;4407997;32;20606;-71
2021/04/21 08:04:25;;;;;;;3.92;1.30;;;13.70;90.50;;;;;;4422014;32;20206;-70
2021/04/21 08:06:54;;;;;;;0.40;0.40;;;13.90;91.70;;;;;;4419385;32;20102;-70
2021/04/21 08:09:21;;;;;;;0.73;0.57;;;14.00;90.10;;;;;;4420242;32;20061;-70
2021/04/21 08:12:05;;;;;;;0.73;0.73;;;14.10;89.40;;;;;;4419532;32;20534;-70
2021/04/21 08:14:39;;;;;;;0.60;0.50;;;14.30;88.90;;;;;;4421157;32;20348;-70
2021/04/21 08:17:05;;;;;;;0.43;0.43;;;14.30;86.20;;;;;;4428105;32;20093;-70
2021/04/21 08:19:35;;;;;;;2.28;0.88;;;14.40;87.10;;;;;;4422123;32;20116;-70
2021/04/21 08:22:01;;;;;;;0.40;0.40;;;14.40;82.80;;;;;;4414968;32;20128;-70
2021/04/21 08:24:26;;;;;;;3.90;1.65;;;14.50;82.20;;;;;;4417005;32;20116;-71
2021/04/21 08:26:53;;;;;;;0.35;0.35;;;14.60;83.80;;;;;;4417195;32;20113;-72
2021/04/21 08:29:19;;;;;;;0.80;0.80;;;14.70;80.60;;;;;;4417664;32;20752;-71
2021/04/21 08:31:50;;;;;;;0.57;0.57;;;14.70;79.40;;;;;;4421478;32;20081;-72
2021/04/21 08:34:16;;;;;;;1.48;0.52;;;14.80;78.80;;;;;;4420201;32;20074;-70
2021/04/21 08:36:42;;;;;;;1.45;0.98;;;14.90;79.00;;;;;;4413809;32;20073;-72
2021/04/21 08:39:09;;;;;;;0.45;0.45;;;14.90;80.20;;;;;;4417696;32;20072;-71
2021/04/21 08:41:38;;;;;;;0.30;0.30;;;15.10;79.70;;;;;;4413634;32;20150;-72
2021/04/21 08:44:05;;;;;;;0.90;0.45;;;15.20;79.00;;;;;;4414821;32;20110;-69
2021/04/21 08:46:30;;;;;;;2.28;1.17;;;15.30;79.70;;;;;;4416802;32;21555;-70
2021/04/21 08:48:58;;;;;;;1.33;0.68;;;15.40;78.10;;;;;;4422503;32;20123;-70
2021/04/21 08:51:26;;;;;;;7.10;1.25;;;15.50;80.00;;;;;;4418877;32;20541;-69
2021/04/21 08:53:59;;;;;;;0.65;0.50;;;15.60;77.90;;;;;;4416588;32;20104;-70
2021/04/21 08:56:25;;;;;;;2.20;1.08;;;15.70;77.90;;;;;;4417019;32;20143;-70
2021/04/21 08:58:51;;;;;;;0.47;0.47;;;15.80;78.00;;;;;;4414195;32;20510;-70
2021/04/21 09:01:19;;;;;;;0.85;0.52;;;15.80;76.90;;;;;;4423502;32;20081;-70
2021/04/21 09:03:48;;;;;;;0.40;0.40;;;16.00;76.00;;;;;;4419566;32;20592;-69
2021/04/21 09:06:15;;;;;;;0.98;0.88;;;16.00;75.10;;;;;;4420130;32;20181;-70
2021/04/21 09:08:42;;;;;;;0.62;0.62;;;16.20;77.60;;;;;;4420599;32;20905;-70
2021/04/21 09:11:08;;;;;;;2.65;1.37;;;16.20;74.70;;;;;;4425886;32;20128;-70
2021/04/21 09:13:34;;;;;;;0.68;0.68;;;16.40;78.50;;;;;;4422688;32;20071;-69
2021/04/21 09:15:59;;;;;;;0.50;0.50;;;16.60;76.80;;;;;;4419327;32;20586;-69
2021/04/21 09:18:27;;;;;;;0.30;0.30;;;16.60;75.10;;;;;;4419981;32;20061;-69
2021/04/21 09:20:53;;;;;;;0.73;0.70;;;16.80;77.30;;;;;;4420606;32;20134;-70
2021/04/21 09:23:19;;;;;;;0.47;0.47;;;16.90;75.00;;;;;;4419453;32;20069;-70
2021/04/21 09:25:48;;;;;;;2.75;1.05;;;17.10;76.30;;;;;;4428973;32;20089;-70
2021/04/21 09:28:15;;;;;;;4.93;1.75;;;17.10;76.10;;;;;;4422163;32;20065;-70
2021/04/21 09:30:45;;;;;;;0.50;0.50;;;17.10;74.30;;;;;;4412611;32;20077;-70
2021/04/21 09:33:11;;;;;;;4.03;1.60;;;17.00;75.10;;;;;;4418321;32;20488;-70
2021/04/21 09:35:42;;;;;;;1.52;1.12;;;17.10;74.40;;;;;;4421616;32;20097;-69
2021/04/21 09:38:13;;;;;;;0.80;0.80;;;17.20;73.30;;;;;;4420584;32;77895;-71
2021/04/21 09:40:42;;;;;;;1.25;0.95;;;17.10;71.30;;;;;;4419308;32;20054;-70
2021/04/21 09:43:11;;;;;;;0.65;0.65;;;17.00;71.50;;;;;;4428769;32;20142;-69
2021/04/21 09:45:41;;;;;;;0.65;0.60;;;17.10;72.40;;;;;;4423794;32;20053;-69
2021/04/21 09:48:10;;;;;;;1.00;0.88;;;17.40;70.80;;;;;;4418560;32;20061;-69
2021/04/21 09:50:37;;;;;;;0.60;0.60;;;17.30;68.70;;;;;;4424078;32;20052;-70
2021/04/21 09:53:17;;;;;;;5.90;1.10;;;17.50;69.40;;;;;;4410683;32;20081;-70
2021/04/21 09:55:58;;;;;;;0.40;0.40;;;17.70;69.80;;;;;;4425388;32;20186;-70
2021/04/21 09:58:28;;;;;;;11.07;2.50;;;17.60;67.60;;;;;;4426131;32;20132;-69
2021/04/21 10:00:55;;;;;;;0.47;0.47;;;17.60;68.00;;;;;;4418142;32;20734;-68
2021/04/21 10:03:21;;;;;;;0.40;0.40;;;17.50;67.40;;;;;;4424790;32;20128;-70
2021/04/21 10:05:46;;;;;;;0.95;0.60;;;17.70;67.50;;;;;;4423627;32;20085;-69
2021/04/21 10:08:19;;;;;;;0.40;0.40;;;17.90;65.70;;;;;;4418896;32;20081;-69
2021/04/21 10:10:46;;;;;;;0.52;0.52;;;18.00;67.20;;;;;;4422855;32;20560;-69
2021/04/21 10:13:15;;;;;;;0.70;0.70;;;18.30;66.60;;;;;;4428863;32;20081;-69
2021/04/21 10:15:40;;;;;;;0.60;0.60;;;18.40;64.90;;;;;;4429128;32;20073;-71
2021/04/21 10:18:07;;;;;;;0.68;0.68;;;18.50;66.20;;;;;;4418938;32;20061;-72
2021/04/21 10:20:33;;;;;;;0.50;0.50;;;18.90;62.20;;;;;;4422551;32;20745;-71
2021/04/21 10:22:59;;;;;;;0.40;0.40;;;18.90;60.90;;;;;;4419918;32;20244;-72
2021/04/21 10:25:25;;;;;;;0.62;0.62;;;18.70;60.40;;;;;;4416726;32;20077;-71
2021/04/21 10:27:51;;;;;;;0.70;0.60;;;18.70;62.40;;;;;;4423321;32;20070;-72
2021/04/21 10:30:17;;;;;;;2.47;1.05;;;19.00;63.40;;;;;;4421276;32;20389;-72
2021/04/21 10:32:43;;;;;;;0.57;0.57;;;19.20;61.90;;;;;;4423354;32;20073;-71
2021/04/21 10:35:08;;;;;;;0.30;0.30;;;19.30;59.90;;;;;;4433606;32;20156;-73
2021/04/21 10:37:36;;;;;;;3.50;2.05;;;19.50;59.50;;;;;;4427623;32;20068;-71
2021/04/21 10:40:04;;;;;;;1.15;0.77;;;19.50;59.40;;;;;;4432251;32;20054;-70
2021/04/21 10:42:49;;;;;;;0.60;0.60;;;19.70;58.20;;;;;;4435908;32;20090;-70
2021/04/21 10:45:17;;;;;;;0.68;0.68;;;19.90;58.10;;;;;;4424226;32;20078;-70
2021/04/21 10:47:46;;;;;;;0.52;0.52;;;19.80;59.20;;;;;;4421605;32;20157;-70
2021/04/21 10:50:13;;;;;;;1.52;0.95;;;20.00;57.30;;;;;;4424182;32;20522;-71
2021/04/21 10:52:41;;;;;;;0.60;0.60;;;20.00;56.70;;;;;;4418312;32;20077;-71
2021/04/21 10:55:10;;;;;;;1.45;1.17;;;19.90;57.00;;;;;;4436413;26;20088;-74
2021/04/21 10:57:41;;;;;;;2.05;0.85;;;19.90;57.70;;;;;;4430341;32;20131;-74
2021/04/21 11:00:09;;;;;;;;;;;19.40;58.10;;;;;;4435744;32;20065;-76
2021/04/21 11:02:48;;;;;;;0.40;0.40;;;19.60;57.30;;;;;;4429468;32;20040;-73
2021/04/21 11:05:19;;;;;;;0.98;0.85;;;20.10;56.50;;;;;;4434909;32;20097;-73
2021/04/21 11:07:47;;;;;;;0.88;0.47;;;20.30;54.80;;;;;;4432357;32;20065;-73
2021/04/21 11:10:35;;;;;;;0.70;0.70;;;20.50;53.10;;;;;;4430420;32;20057;-73
2021/04/21 11:13:00;;;;;;;1.37;0.82;;;20.20;50.90;;;;;;4421364;32;20756;-73
2021/04/21 11:15:40;;;;;;;1.10;0.50;;;20.50;51.60;;;;;;4427949;32;20073;-72
2021/04/21 11:18:12;;;;;;;0.57;0.52;;;21.10;52.20;;;;;;4428072;32;20129;-73
2021/04/21 11:20:58;;;;;;;2.10;1.05;;;20.80;53.20;;;;;;4432339;32;20069;-74
2021/04/21 11:23:54;;;;;;;0.75;0.50;;;20.90;53.60;;;;;;4419884;32;20524;-73
2021/04/21 11:26:31;;;;;;;0.62;0.50;;;21.20;52.10;;;;;;4409687;32;20197;-75
2021/04/21 11:29:14;;;;;;;0.62;0.30;;;21.10;52.20;;;;;;4419760;32;20094;-73
2021/04/21 11:31:51;;;;;;;0.60;0.60;;;21.30;51.60;;;;;;4422403;32;20065;-74
2021/04/21 11:34:22;;;;;;;0.85;0.70;;;20.90;51.30;;;;;;4416119;32;20548;-74
2021/04/21 11:36:53;;;;;;;0.70;0.70;;;21.10;51.80;;;;;;4406190;32;20082;-74
2021/04/21 11:42:20;;;;;;;1.10;0.70;;;21.10;52.30;;;;;;4395157;32;20096;-73
2021/04/21 11:44:56;;;;;;;0.50;0.50;;;21.20;52.00;;;;;;4413587;32;20073;-71
2021/04/21 11:47:32;;;;;;;0.40;0.40;;;21.50;50.70;;;;;;4419038;32;20205;-72
2021/04/21 11:50:18;;;;;;;0.40;0.40;;;21.10;51.00;;;;;;4420063;32;20101;-72
2021/04/21 11:52:46;;;;;;;7.85;0.47;;;21.00;52.60;;;;;;4418787;32;20070;-71
2021/04/21 11:55:36;;;;;;;0.80;0.75;;;20.60;53.10;;;;;;4422525;32;20171;-72
2021/04/21 11:58:12;;;;;;;0.30;0.30;;;20.50;53.70;;;;;;4406339;32;20065;-73
2021/04/21 12:00:42;;;;;;;0.98;0.40;;;21.10;53.80;;;;;;4416758;32;20529;-73
2021/04/21 12:03:29;;;;;;;1.48;0.73;;;21.50;52.20;;;;;;4419145;32;20136;-73
2021/04/21 12:06:13;;;;;;;0.90;0.75;;;20.80;52.70;;;;;;4411026;32;20109;-73
2021/04/21 12:08:43;;;;;;;0.43;0.43;;;20.00;53.30;;;;;;4421089;32;20065;-73
2021/04/21 12:11:09;;;;;;;3.45;0.93;;;20.10;54.30;;;;;;4421131;32;20070;-73
2021/04/21 12:13:39;;;;;;;0.50;0.50;;;20.00;53.90;;;;;;4414387;32;20061;-73
2021/04/21 12:16:12;;;;;;;0.30;0.30;;;19.50;54.40;;;;;;4414787;32;20066;-73
2021/04/21 12:18:46;;;;;;;0.43;0.43;;;19.30;55.60;;;;;;4411355;32;20159;-73
2021/04/21 12:21:17;;;;;;;0.77;0.77;;;19.30;55.40;;;;;;4418385;32;20148;-73
2021/04/21 12:23:46;;;;;;;6.18;1.35;;;19.30;54.70;;;;;;4418705;32;20066;-73
2021/04/21 12:26:22;;;;;;;0.45;0.43;;;19.90;53.90;;;;;;4419355;32;20081;-73
2021/04/21 12:28:55;;;;;;;0.55;0.55;;;20.70;53.40;;;;;;4420402;32;20077;-74
2021/04/21 12:31:22;;;;;;;0.30;0.30;;;21.20;52.80;;;;;;4418251;32;20073;-74
2021/04/21 12:33:49;;;;;;;2.50;0.95;;;21.90;51.40;;;;;;4420264;32;20089;-75
2021/04/21 12:36:17;;;;;;;1.02;0.90;;;22.70;49.90;;;;;;4423284;32;20462;-74
2021/04/21 12:38:42;;;;;;;0.30;0.30;;;22.60;49.20;;;;;;4417539;32;20070;-74
2021/04/21 12:41:18;;;;;;;0.30;0.30;;;22.80;50.30;;;;;;4425003;32;20085;-74
2021/04/21 12:43:43;;;;;;;0.50;0.50;;;22.30;49.70;;;;;;4419091;32;20085;-74
2021/04/21 12:46:15;;;;;;;0.77;0.77;;;21.50;50.10;;;;;;4424144;32;20085;-73
2021/04/21 12:48:56;;;;;;;0.93;0.40;;;20.80;51.90;;;;;;4414960;32;20078;-73
2021/04/21 12:51:29;;;;;;;0.50;0.50;;;20.10;53.10;;;;;;4413785;32;20124;-73
2021/04/21 12:53:55;;;;;;;0.40;0.40;;;19.70;54.50;;;;;;4414804;32;20079;-73
2021/04/21 12:56:21;;;;;;;1.10;1.00;;;19.60;53.60;;;;;;4419173;32;20073;-73
2021/04/21 12:58:46;;;;;;;0.50;0.50;;;19.40;53.00;;;;;;4424379;32;20089;-74
2021/04/21 13:01:18;;;;;;;1.00;0.77;;;20.20;52.50;;;;;;4421430;32;20402;-74
2021/04/21 13:04:04;;;;;;;0.57;0.52;;;21.60;49.90;;;;;;4414255;32;20061;-73
2021/04/21 13:06:38;;;;;;;2.35;1.12;;;22.00;48.90;;;;;;4410871;32;20107;-74
2021/04/21 13:09:06;;;;;;;0.65;0.65;;;21.10;49.90;;;;;;4427671;32;20077;-74
2021/04/21 13:11:33;;;;;;;0.57;0.57;;;20.70;51.80;;;;;;4418155;32;20077;-74
2021/04/21 13:13:58;;;;;;;1.48;0.75;;;20.10;51.40;;;;;;4425656;32;20128;-73
2021/04/21 13:16:27;;;;;;;2.90;1.20;;;19.70;52.70;;;;;;4419017;32;20090;-73
2021/04/21 13:18:53;;;;;;;0.37;0.37;;;19.30;53.50;;;;;;4420614;32;20066;-73
2021/04/21 13:21:19;;;;;;;0.40;0.40;;;19.60;53.50;;;;;;4424681;32;20562;-73
2021/04/21 13:23:52;;;;;;;1.00;0.50;;;20.50;53.10;;;;;;4421281;32;20104;-74
2021/04/21 13:26:19;;;;;;;0.40;0.40;;;21.90;52.10;;;;;;4424133;32;20132;-74